createdAt,value
2019-03-24T00:00:02.560Z,8.09
2019-03-24T00:01:02.539Z,8.08
2019-03-24T00:02:02.544Z,8.06
2019-03-24T00:03:02.558Z,8.05
2019-03-24T00:04:02.574Z,8.06
2019-03-24T00:05:02.523Z,8.01
2019-03-24T00:06:02.504Z,7.99
2019-03-24T00:07:02.476Z,8.01
2019-03-24T00:08:02.471Z,7.99
2019-03-24T00:09:02.463Z,7.96
2019-03-24T00:10:02.485Z,7.96
2019-03-24T00:11:02.439Z,8.01
2019-03-24T00:12:02.421Z,7.91
2019-03-24T00:13:02.436Z,7.95
2019-03-24T00:14:02.440Z,7.99
2019-03-24T00:15:02.406Z,8.02
2019-03-24T00:16:02.413Z,7.96
2019-03-24T00:17:02.375Z,7.96
2019-03-24T00:18:02.383Z,7.93
2019-03-24T00:19:02.360Z,7.84
2019-03-24T00:20:02.360Z,7.85
2019-03-24T00:21:02.333Z,7.84
2019-03-24T00:22:02.337Z,7.77
2019-03-24T00:23:02.331Z,7.81
2019-03-24T00:24:02.313Z,7.69
2019-03-24T00:25:02.319Z,7.70
2019-03-24T00:26:02.354Z,7.77
2019-03-24T00:27:02.277Z,7.72
2019-03-24T00:28:02.251Z,7.70
2019-03-24T00:29:02.253Z,7.58
2019-03-24T00:30:02.229Z,7.58
2019-03-24T00:31:02.233Z,7.61
2019-03-24T00:32:02.231Z,7.64
2019-03-24T00:33:02.214Z,7.61
2019-03-24T00:34:02.190Z,7.61
2019-03-24T00:35:02.182Z,7.62
2019-03-24T00:36:03.098Z,7.66
2019-03-24T00:37:02.161Z,7.69
2019-03-24T00:38:02.184Z,7.61
2019-03-24T00:39:02.150Z,7.66
2019-03-24T00:40:02.127Z,7.64
2019-03-24T00:41:02.151Z,7.62
2019-03-24T00:42:03.102Z,7.66
2019-03-24T00:43:02.152Z,7.61
2019-03-24T00:44:02.087Z,7.64
2019-03-24T00:45:02.097Z,7.62
2019-03-24T00:46:02.060Z,7.66
2019-03-24T00:47:02.124Z,7.55
2019-03-24T00:48:02.056Z,7.48
2019-03-24T00:49:02.054Z,7.53
2019-03-24T00:50:02.029Z,7.44
2019-03-24T00:51:02.027Z,7.40
2019-03-24T00:52:02.012Z,7.41
2019-03-24T00:53:02.029Z,7.41
2019-03-24T00:54:01.978Z,7.43
2019-03-24T00:55:01.984Z,7.31
2019-03-24T00:56:01.983Z,7.29
2019-03-24T00:57:01.992Z,7.37
2019-03-24T00:58:01.972Z,7.31
2019-03-24T00:59:01.934Z,7.23
2019-03-24T01:00:01.946Z,7.14
2019-03-24T01:01:01.906Z,7.22
2019-03-24T01:02:01.917Z,7.18
2019-03-24T01:03:01.880Z,7.11
2019-03-24T01:04:01.902Z,7.15
2019-03-24T01:05:01.906Z,7.13
2019-03-24T01:06:01.994Z,7.21
2019-03-24T01:07:01.848Z,7.04
2019-03-24T01:08:01.838Z,7.07
2019-03-24T01:09:02.724Z,7.03
2019-03-24T01:10:02.180Z,7.00
2019-03-24T01:11:02.622Z,6.95
2019-03-24T01:12:02.630Z,6.95
2019-03-24T01:13:01.829Z,6.95
2019-03-24T01:14:03.271Z,6.93
2019-03-24T01:15:01.814Z,6.92
2019-03-24T01:16:01.803Z,6.87
2019-03-24T01:17:01.735Z,6.83
2019-03-24T01:18:01.732Z,6.85
2019-03-24T01:19:01.715Z,6.83
2019-03-24T01:20:01.778Z,6.83
2019-03-24T01:21:01.766Z,6.80
2019-03-24T01:22:01.979Z,6.71
2019-03-24T01:23:01.692Z,6.75
2019-03-24T01:24:01.681Z,6.72
2019-03-24T01:25:01.694Z,6.71
2019-03-24T01:26:01.652Z,6.64
2019-03-24T01:27:01.641Z,6.67
2019-03-24T01:28:01.628Z,6.64
2019-03-24T01:29:01.679Z,6.65
2019-03-24T01:30:01.777Z,6.57
2019-03-24T01:31:01.643Z,6.53
2019-03-24T01:32:01.622Z,6.59
2019-03-24T01:33:01.573Z,6.59
2019-03-24T01:34:01.580Z,6.59
2019-03-24T01:35:01.711Z,6.52
2019-03-24T01:36:01.554Z,6.53
2019-03-24T01:37:01.528Z,6.47
2019-03-24T01:38:01.588Z,6.47
2019-03-24T01:39:01.503Z,6.47
2019-03-24T01:40:01.499Z,6.47
2019-03-24T01:41:01.507Z,6.46
2019-03-24T01:42:01.472Z,6.39
2019-03-24T01:43:01.464Z,6.43
2019-03-24T01:44:01.444Z,6.34
2019-03-24T01:45:02.147Z,6.36
2019-03-24T01:46:01.473Z,6.28
2019-03-24T01:47:01.416Z,6.22
2019-03-24T01:48:01.418Z,6.28
2019-03-24T01:49:01.410Z,6.19
2019-03-24T01:50:01.599Z,6.16
2019-03-24T01:51:01.373Z,6.12
2019-03-24T01:52:01.422Z,6.19
2019-03-24T01:53:01.400Z,6.17
2019-03-24T01:54:13.091Z,6.20
2019-03-24T01:55:01.561Z,6.15
2019-03-24T01:56:01.487Z,6.13
2019-03-24T01:57:01.399Z,5.99
2019-03-24T01:58:01.808Z,6.06
2019-03-24T01:59:01.520Z,6.06
2019-03-24T02:00:02.133Z,5.98
2019-03-24T02:01:01.395Z,5.97
2019-03-24T02:02:01.315Z,5.99
2019-03-24T02:03:01.443Z,5.92
2019-03-24T02:04:01.256Z,5.88
2019-03-24T02:05:01.309Z,5.97
2019-03-24T02:06:02.132Z,5.98
2019-03-24T02:07:01.334Z,5.91
2019-03-24T02:08:01.303Z,5.98
2019-03-24T02:09:01.317Z,5.98
2019-03-24T02:10:01.214Z,6.05
2019-03-24T02:11:01.203Z,5.99
2019-03-24T02:12:01.175Z,5.88
2019-03-24T02:13:01.157Z,5.90
2019-03-24T02:14:01.631Z,5.92
2019-03-24T02:15:01.161Z,5.98
2019-03-24T02:16:09.041Z,5.94
2019-03-24T02:17:02.759Z,5.97
2019-03-24T02:18:01.113Z,5.92
2019-03-24T02:19:02.157Z,5.94
2019-03-24T02:20:01.093Z,5.84
2019-03-24T02:21:01.161Z,5.83
2019-03-24T02:22:01.631Z,5.81
2019-03-24T02:23:01.056Z,5.84
2019-03-24T02:24:02.162Z,5.76
2019-03-24T02:25:01.044Z,5.77
2019-03-24T02:26:01.039Z,5.76
2019-03-24T02:27:01.087Z,5.72
2019-03-24T02:28:02.179Z,5.65
2019-03-24T02:29:00.999Z,5.65
2019-03-24T02:30:01.003Z,5.67
2019-03-24T02:31:01.634Z,5.61
2019-03-24T02:32:01.639Z,5.58
2019-03-24T02:33:01.062Z,5.59
2019-03-24T02:34:00.935Z,5.55
2019-03-24T02:35:01.736Z,5.51
2019-03-24T02:36:01.758Z,5.55
2019-03-24T02:37:00.936Z,5.56
2019-03-24T02:38:01.638Z,5.51
2019-03-24T02:39:00.898Z,5.51
2019-03-24T02:40:00.891Z,5.46
2019-03-24T02:41:01.254Z,5.51
2019-03-24T02:42:01.647Z,5.43
2019-03-24T02:43:01.636Z,5.40
2019-03-24T02:44:01.729Z,5.40
2019-03-24T02:45:00.875Z,5.38
2019-03-24T02:46:00.868Z,5.36
2019-03-24T02:47:00.822Z,5.44
2019-03-24T02:48:00.870Z,5.34
2019-03-24T02:49:00.780Z,5.36
2019-03-24T02:50:00.806Z,5.26
2019-03-24T02:51:00.796Z,5.29
2019-03-24T02:52:00.873Z,5.29
2019-03-24T02:53:00.776Z,5.33
2019-03-24T02:54:00.884Z,5.29
2019-03-24T02:55:00.819Z,5.36
2019-03-24T02:56:00.742Z,5.34
2019-03-24T02:57:00.786Z,5.28
2019-03-24T02:58:00.832Z,5.22
2019-03-24T02:59:00.728Z,5.33
2019-03-24T03:00:01.646Z,5.13
2019-03-24T03:01:01.142Z,5.22
2019-03-24T03:02:01.138Z,5.16
2019-03-24T03:03:00.728Z,5.20
2019-03-24T03:04:00.608Z,5.15
2019-03-24T03:05:00.624Z,5.08
2019-03-24T03:06:00.635Z,5.12
2019-03-24T03:07:00.614Z,5.13
2019-03-24T03:08:00.638Z,5.10
2019-03-24T03:09:00.631Z,5.05
2019-03-24T03:10:00.601Z,5.08
2019-03-24T03:11:00.544Z,5.10
2019-03-24T03:12:00.730Z,4.97
2019-03-24T03:13:00.540Z,5.01
2019-03-24T03:14:00.613Z,5.00
2019-03-24T03:15:00.555Z,4.89
2019-03-24T03:16:00.535Z,4.90
2019-03-24T03:17:00.548Z,4.87
2019-03-24T03:18:00.572Z,4.94
2019-03-24T03:19:00.481Z,4.86
2019-03-24T03:20:00.585Z,4.76
2019-03-24T03:21:00.465Z,4.86
2019-03-24T03:22:00.476Z,4.83
2019-03-24T03:23:00.488Z,4.79
2019-03-24T03:24:00.461Z,4.71
2019-03-24T03:25:00.475Z,4.74
2019-03-24T03:26:00.396Z,4.78
2019-03-24T03:27:00.396Z,4.82
2019-03-24T03:28:00.416Z,4.68
2019-03-24T03:29:00.400Z,4.70
2019-03-24T03:30:00.983Z,4.66
2019-03-24T03:31:00.377Z,4.70
2019-03-24T03:32:00.361Z,4.74
2019-03-24T03:33:00.506Z,4.78
2019-03-24T03:34:05.154Z,4.60
2019-03-24T03:35:00.898Z,4.64
2019-03-24T03:36:00.315Z,4.61
2019-03-24T03:37:00.366Z,4.67
2019-03-24T03:38:00.297Z,4.64
2019-03-24T03:39:00.346Z,4.60
2019-03-24T03:40:00.734Z,4.66
2019-03-24T03:41:00.314Z,4.67
2019-03-24T03:42:00.257Z,4.66
2019-03-24T03:43:00.247Z,4.64
2019-03-24T03:44:00.250Z,4.60
2019-03-24T03:45:01.144Z,4.57
2019-03-24T03:46:00.204Z,4.49
2019-03-24T03:47:00.210Z,4.53
2019-03-24T03:48:00.276Z,4.57
2019-03-24T03:49:00.145Z,4.57
2019-03-24T03:50:00.449Z,4.50
2019-03-24T03:51:00.144Z,4.45
2019-03-24T03:52:00.138Z,4.34
2019-03-24T03:53:00.148Z,4.46
2019-03-24T03:54:11.689Z,4.32
2019-03-24T03:55:00.097Z,4.32
2019-03-24T03:56:00.303Z,4.34
2019-03-24T03:57:00.257Z,4.24
2019-03-24T03:58:00.074Z,4.34
2019-03-24T03:59:00.105Z,4.28
2019-03-24T04:00:00.164Z,4.22
2019-03-24T04:01:07.843Z,4.24
2019-03-24T04:02:00.029Z,4.34
2019-03-24T04:03:00.262Z,4.27
2019-03-24T04:04:00.854Z,4.25
2019-03-24T04:05:00.028Z,4.24
2019-03-24T04:06:00.053Z,4.22
2019-03-24T04:07:09.289Z,4.18
2019-03-24T04:07:59.946Z,4.22
2019-03-24T04:08:59.928Z,4.27
2019-03-24T04:09:59.915Z,4.21
2019-03-24T04:10:59.939Z,4.18
2019-03-24T04:11:59.894Z,4.27
2019-03-24T04:12:59.882Z,4.28
2019-03-24T04:13:59.874Z,4.31
2019-03-24T04:14:59.893Z,4.28
2019-03-24T04:15:59.888Z,4.21
2019-03-24T04:17:07.165Z,4.30
2019-03-24T04:18:00.817Z,4.20
2019-03-24T04:18:59.808Z,4.20
2019-03-24T04:19:59.801Z,4.14
2019-03-24T04:20:59.832Z,4.12
2019-03-24T04:21:59.790Z,4.04
2019-03-24T04:22:59.779Z,4.13
2019-03-24T04:23:59.775Z,4.10
2019-03-24T04:24:59.749Z,4.14
2019-03-24T04:25:59.786Z,4.06
2019-03-24T04:26:59.738Z,4.12
2019-03-24T04:27:59.716Z,4.12
2019-03-24T04:28:59.724Z,4.12
2019-03-24T04:29:59.713Z,4.09
2019-03-24T04:30:59.699Z,4.00
2019-03-24T04:31:59.717Z,4.00
2019-03-24T04:32:59.662Z,4.02
2019-03-24T04:33:59.654Z,4.00
2019-03-24T04:34:59.655Z,3.95
2019-03-24T04:35:59.690Z,4.06
2019-03-24T04:36:59.634Z,4.07
2019-03-24T04:37:59.616Z,3.95
2019-03-24T04:38:59.626Z,4.03
2019-03-24T04:39:59.595Z,4.03
2019-03-24T04:40:59.593Z,4.03
2019-03-24T04:41:59.600Z,3.91
2019-03-24T04:42:59.569Z,3.89
2019-03-24T04:43:59.558Z,3.92
2019-03-24T04:44:59.541Z,3.92
2019-03-24T04:45:59.528Z,3.89
2019-03-24T04:46:59.552Z,3.96
2019-03-24T04:47:59.525Z,3.86
2019-03-24T04:48:59.533Z,3.78
2019-03-24T04:49:59.512Z,3.85
2019-03-24T04:50:59.489Z,3.81
2019-03-24T04:51:59.538Z,3.77
2019-03-24T04:52:59.453Z,3.74
2019-03-24T04:53:59.496Z,3.74
2019-03-24T04:54:59.439Z,3.71
2019-03-24T04:55:59.432Z,3.68
2019-03-24T04:56:59.423Z,3.67
2019-03-24T04:57:59.508Z,3.71
2019-03-24T04:58:59.449Z,3.76
2019-03-24T04:59:59.425Z,3.81
2019-03-24T05:00:59.381Z,3.61
2019-03-24T05:01:59.464Z,3.73
2019-03-24T05:02:59.367Z,3.70
2019-03-24T05:03:59.409Z,3.67
2019-03-24T05:04:59.349Z,3.73
2019-03-24T05:05:59.335Z,3.77
2019-03-24T05:06:59.315Z,3.66
2019-03-24T05:07:59.366Z,3.66
2019-03-24T05:08:59.374Z,3.70
2019-03-24T05:09:59.328Z,3.70
2019-03-24T05:10:59.273Z,3.70
2019-03-24T05:11:59.346Z,3.74
2019-03-24T05:12:59.254Z,3.56
2019-03-24T05:13:59.290Z,3.61
2019-03-24T05:14:59.259Z,3.61
2019-03-24T05:15:59.220Z,3.58
2019-03-24T05:16:59.219Z,3.74
2019-03-24T05:17:59.203Z,3.73
2019-03-24T05:18:59.193Z,3.61
2019-03-24T05:19:59.249Z,3.63
2019-03-24T05:20:59.183Z,3.67
2019-03-24T05:21:59.430Z,3.59
2019-03-24T05:22:59.162Z,3.61
2019-03-24T05:23:59.183Z,3.61
2019-03-24T05:24:59.166Z,3.73
2019-03-24T05:25:59.745Z,3.68
2019-03-24T05:26:59.095Z,3.61
2019-03-24T05:27:59.169Z,3.64
2019-03-24T05:28:59.101Z,3.63
2019-03-24T05:29:59.078Z,3.58
2019-03-24T05:31:02.424Z,3.71
2019-03-24T05:31:59.066Z,3.71
2019-03-24T05:32:59.313Z,3.71
2019-03-24T05:34:00.448Z,3.71
2019-03-24T05:34:59.048Z,3.70
2019-03-24T05:35:59.287Z,3.66
2019-03-24T05:37:01.998Z,3.70
2019-03-24T05:37:59.238Z,3.67
2019-03-24T05:38:58.983Z,3.77
2019-03-24T05:39:58.978Z,3.74
2019-03-24T05:40:58.991Z,3.78
2019-03-24T05:41:59.037Z,3.77
2019-03-24T05:42:58.960Z,3.77
2019-03-24T05:44:00.942Z,3.78
2019-03-24T05:45:02.595Z,3.78
2019-03-24T05:45:59.424Z,3.86
2019-03-24T05:47:04.233Z,3.88
2019-03-24T05:48:03.677Z,3.86
2019-03-24T05:49:02.444Z,3.92
2019-03-24T05:50:02.310Z,3.94
2019-03-24T05:50:58.842Z,3.96
2019-03-24T05:51:58.840Z,4.02
2019-03-24T05:52:58.831Z,4.02
2019-03-24T05:53:58.849Z,3.96
2019-03-24T05:54:58.810Z,3.99
2019-03-24T05:55:58.822Z,3.99
2019-03-24T05:56:58.820Z,4.09
2019-03-24T05:57:59.022Z,4.07
2019-03-24T05:58:59.167Z,4.03
2019-03-24T06:00:00.071Z,4.12
2019-03-24T06:00:59.193Z,4.10
2019-03-24T06:01:59.129Z,4.18
2019-03-24T06:02:59.498Z,4.14
2019-03-24T06:03:58.873Z,4.24
2019-03-24T06:04:58.707Z,4.22
2019-03-24T06:05:59.055Z,4.39
2019-03-24T06:06:59.579Z,4.42
2019-03-24T06:08:00.990Z,4.48
2019-03-24T06:08:59.944Z,4.49
2019-03-24T06:10:01.416Z,4.67
2019-03-24T06:10:58.649Z,4.66
2019-03-24T06:11:58.623Z,4.68
2019-03-24T06:12:58.640Z,4.86
2019-03-24T06:13:58.613Z,4.86
2019-03-24T06:14:58.598Z,4.89
2019-03-24T06:15:58.597Z,4.97
2019-03-24T06:16:58.587Z,4.95
2019-03-24T06:17:58.566Z,4.95
2019-03-24T06:18:58.607Z,5.07
2019-03-24T06:19:58.549Z,5.02
2019-03-24T06:20:58.558Z,5.08
2019-03-24T06:21:58.530Z,5.08
2019-03-24T06:22:58.504Z,5.07
2019-03-24T06:23:58.553Z,5.13
2019-03-24T06:24:58.498Z,5.20
2019-03-24T06:25:58.513Z,5.13
2019-03-24T06:26:58.474Z,5.15
2019-03-24T06:27:58.622Z,5.20
2019-03-24T06:28:58.486Z,5.19
2019-03-24T06:29:58.449Z,5.13
2019-03-24T06:30:58.432Z,5.37
2019-03-24T06:31:58.429Z,5.29
2019-03-24T06:32:58.408Z,5.38
2019-03-24T06:33:58.422Z,5.34
2019-03-24T06:34:58.429Z,5.47
2019-03-24T06:35:58.422Z,5.52
2019-03-24T06:36:58.358Z,5.67
2019-03-24T06:37:58.364Z,5.70
2019-03-24T06:38:58.338Z,5.72
2019-03-24T06:39:58.369Z,5.79
2019-03-24T06:40:58.353Z,5.92
2019-03-24T06:41:58.302Z,5.83
2019-03-24T06:42:58.299Z,5.94
2019-03-24T06:43:58.311Z,5.98
2019-03-24T06:44:58.291Z,5.92
2019-03-24T06:45:58.289Z,5.83
2019-03-24T06:46:58.357Z,5.79
2019-03-24T06:47:58.460Z,5.81
2019-03-24T06:48:58.234Z,5.92
2019-03-24T06:49:58.260Z,5.98
2019-03-24T06:50:58.265Z,5.98
2019-03-24T06:51:58.199Z,6.02
2019-03-24T06:52:58.187Z,6.17
2019-03-24T06:53:58.193Z,6.10
2019-03-24T06:54:58.172Z,6.16
2019-03-24T06:55:58.164Z,6.16
2019-03-24T06:56:58.199Z,6.25
2019-03-24T06:57:58.180Z,6.22
2019-03-24T06:58:58.131Z,6.17
2019-03-24T06:59:58.181Z,6.20
2019-03-24T07:00:58.117Z,6.19
2019-03-24T07:01:58.110Z,6.25
2019-03-24T07:02:58.115Z,6.38
2019-03-24T07:03:58.117Z,6.43
2019-03-24T07:04:58.067Z,6.53
2019-03-24T07:05:58.079Z,6.47
2019-03-24T07:06:58.041Z,6.46
2019-03-24T07:07:58.076Z,6.36
2019-03-24T07:08:58.070Z,6.56
2019-03-24T07:09:58.141Z,6.53
2019-03-24T07:10:58.006Z,6.41
2019-03-24T07:12:00.103Z,6.36
2019-03-24T07:12:57.992Z,6.43
2019-03-24T07:13:57.987Z,6.41
2019-03-24T07:14:57.970Z,6.52
2019-03-24T07:15:57.959Z,6.65
2019-03-24T07:16:58.014Z,6.77
2019-03-24T07:18:07.926Z,6.74
2019-03-24T07:18:58.920Z,6.87
2019-03-24T07:19:57.917Z,6.90
2019-03-24T07:20:57.909Z,6.90
2019-03-24T07:21:57.891Z,7.05
2019-03-24T07:22:57.978Z,7.19
2019-03-24T07:23:57.882Z,7.25
2019-03-24T07:24:57.857Z,7.29
2019-03-24T07:25:57.878Z,7.44
2019-03-24T07:26:57.860Z,7.48
2019-03-24T07:27:57.919Z,7.58
2019-03-24T07:28:57.828Z,7.67
2019-03-24T07:29:58.734Z,7.72
2019-03-24T07:31:00.556Z,7.72
2019-03-24T07:31:57.785Z,7.69
2019-03-24T07:32:58.301Z,7.70
2019-03-24T07:33:57.824Z,7.80
2019-03-24T07:34:58.783Z,7.77
2019-03-24T07:35:57.831Z,7.85
2019-03-24T07:36:57.745Z,7.95
2019-03-24T07:37:57.743Z,7.98
2019-03-24T07:38:57.720Z,8.16
2019-03-24T07:39:57.754Z,8.09
2019-03-24T07:40:57.696Z,8.14
2019-03-24T07:41:57.677Z,8.20
2019-03-24T07:42:57.672Z,8.11
2019-03-24T07:43:57.854Z,8.20
2019-03-24T07:44:58.485Z,8.14
2019-03-24T07:45:57.637Z,8.06
2019-03-24T07:46:57.630Z,8.11
2019-03-24T07:47:57.681Z,8.05
2019-03-24T07:48:57.611Z,8.21
2019-03-24T07:49:57.615Z,8.14
2019-03-24T07:50:57.593Z,8.17
2019-03-24T07:51:57.654Z,7.93
2019-03-24T07:52:57.566Z,7.80
2019-03-24T07:53:57.609Z,8.02
2019-03-24T07:54:58.394Z,8.05
2019-03-24T07:55:57.545Z,7.90
2019-03-24T07:56:57.573Z,7.93
2019-03-24T07:57:57.516Z,7.91
2019-03-24T07:58:57.525Z,8.01
2019-03-24T07:59:57.508Z,8.06
2019-03-24T08:00:57.551Z,8.17
2019-03-24T08:01:57.484Z,8.06
2019-03-24T08:02:57.485Z,8.03
2019-03-24T08:03:57.459Z,8.06
2019-03-24T08:04:57.487Z,8.21
2019-03-24T08:05:57.448Z,8.31
2019-03-24T08:06:57.459Z,8.36
2019-03-24T08:07:57.446Z,8.71
2019-03-24T08:08:57.426Z,8.71
2019-03-24T08:09:57.396Z,8.86
2019-03-24T08:10:57.403Z,8.96
2019-03-24T08:11:57.402Z,8.99
2019-03-24T08:12:57.388Z,8.90
2019-03-24T08:13:57.364Z,8.87
2019-03-24T08:14:59.023Z,8.93
2019-03-24T08:15:57.358Z,9.00
2019-03-24T08:16:57.353Z,8.82
2019-03-24T08:17:57.313Z,8.72
2019-03-24T08:18:57.300Z,8.69
2019-03-24T08:19:57.364Z,8.68
2019-03-24T08:20:57.263Z,8.89
2019-03-24T08:21:57.429Z,9.03
2019-03-24T08:22:57.249Z,9.00
2019-03-24T08:23:57.299Z,9.16
2019-03-24T08:24:57.223Z,9.18
2019-03-24T08:25:57.220Z,9.29
2019-03-24T08:26:57.239Z,9.37
2019-03-24T08:27:57.229Z,9.36
2019-03-24T08:28:57.187Z,9.33
2019-03-24T08:29:57.213Z,9.31
2019-03-24T08:30:57.147Z,9.26
2019-03-24T08:31:57.143Z,9.15
2019-03-24T08:32:57.215Z,9.36
2019-03-24T08:33:57.128Z,9.27
2019-03-24T08:34:57.114Z,9.47
2019-03-24T08:35:57.144Z,9.47
2019-03-24T08:36:57.092Z,9.58
2019-03-24T08:37:57.298Z,9.73
2019-03-24T08:38:57.077Z,9.70
2019-03-24T08:39:57.076Z,9.76
2019-03-24T08:40:57.055Z,9.85
2019-03-24T08:41:57.092Z,9.97
2019-03-24T08:42:57.133Z,10.18
2019-03-24T08:43:57.023Z,10.15
2019-03-24T08:44:57.019Z,10.17
2019-03-24T08:45:57.040Z,10.02
2019-03-24T08:46:57.048Z,9.92
2019-03-24T08:47:57.010Z,10.05
2019-03-24T08:49:02.159Z,9.90
2019-03-24T08:49:56.945Z,9.95
2019-03-24T08:50:56.946Z,9.87
2019-03-24T08:51:56.953Z,10.02
2019-03-24T08:52:56.921Z,9.99
2019-03-24T08:53:56.907Z,9.84
2019-03-24T08:54:56.938Z,9.70
2019-03-24T08:55:56.893Z,9.56
2019-03-24T08:56:56.911Z,9.52
2019-03-24T08:57:56.868Z,9.49
2019-03-24T08:58:56.917Z,9.66
2019-03-24T08:59:56.844Z,9.59
2019-03-24T09:00:56.878Z,9.70
2019-03-24T09:01:56.822Z,9.95
2019-03-24T09:02:56.821Z,9.90
2019-03-24T09:03:56.821Z,10.06
2019-03-24T09:04:56.793Z,9.99
2019-03-24T09:05:56.814Z,9.94
2019-03-24T09:06:56.779Z,10.24
2019-03-24T09:07:56.767Z,10.21
2019-03-24T09:08:56.752Z,10.28
2019-03-24T09:09:56.735Z,10.45
2019-03-24T09:10:56.774Z,10.46
2019-03-24T09:11:57.064Z,10.53
2019-03-24T09:12:56.725Z,10.42
2019-03-24T09:13:57.429Z,10.48
2019-03-24T09:14:56.692Z,10.41
2019-03-24T09:15:56.673Z,10.23
2019-03-24T09:16:56.698Z,10.42
2019-03-24T09:17:56.671Z,10.46
2019-03-24T09:18:56.646Z,10.61
2019-03-24T09:19:56.663Z,10.69
2019-03-24T09:20:56.630Z,10.86
2019-03-24T09:21:56.656Z,10.83
2019-03-24T09:22:56.613Z,11.12
2019-03-24T09:23:56.603Z,11.26
2019-03-24T09:24:56.605Z,11.38
2019-03-24T09:25:56.565Z,11.49
2019-03-24T09:26:56.573Z,11.30
2019-03-24T09:27:56.595Z,11.23
2019-03-24T09:28:59.208Z,11.27
2019-03-24T09:29:56.538Z,11.51
2019-03-24T09:30:56.527Z,11.43
2019-03-24T09:31:56.519Z,11.65
2019-03-24T09:32:56.481Z,11.71
2019-03-24T09:33:56.534Z,11.76
2019-03-24T09:34:56.476Z,11.88
2019-03-24T09:35:56.462Z,11.91
2019-03-24T09:36:56.452Z,12.00
2019-03-24T09:37:56.472Z,12.03
2019-03-24T09:38:56.433Z,12.14
2019-03-24T09:39:56.412Z,12.00
2019-03-24T09:40:56.436Z,12.25
2019-03-24T09:41:56.396Z,12.37
2019-03-24T09:42:56.403Z,12.07
2019-03-24T09:43:56.414Z,11.76
2019-03-24T09:44:56.384Z,11.51
2019-03-24T09:45:56.400Z,11.44
2019-03-24T09:46:56.399Z,11.26
2019-03-24T09:47:56.335Z,11.04
2019-03-24T09:49:03.175Z,11.10
2019-03-24T09:49:57.310Z,10.94
2019-03-24T09:50:56.300Z,11.05
2019-03-24T09:51:56.288Z,11.18
2019-03-24T09:52:56.307Z,11.34
2019-03-24T09:53:56.291Z,11.52
2019-03-24T09:54:56.311Z,11.55
2019-03-24T09:55:56.259Z,11.65
2019-03-24T09:56:56.245Z,11.63
2019-03-24T09:57:56.226Z,11.71
2019-03-24T09:58:56.254Z,11.85
2019-03-24T09:59:56.192Z,11.93
2019-03-24T10:00:56.187Z,12.05
2019-03-24T10:01:56.278Z,12.10
2019-03-24T10:02:56.173Z,12.20
2019-03-24T10:03:56.186Z,12.32
2019-03-24T10:04:56.182Z,12.32
2019-03-24T10:05:56.129Z,12.33
2019-03-24T10:06:56.279Z,12.32
2019-03-24T10:08:10.597Z,12.29
2019-03-24T10:08:59.646Z,12.17
2019-03-24T10:09:56.356Z,12.29
2019-03-24T10:10:56.162Z,12.29
2019-03-24T10:11:56.077Z,12.32
2019-03-24T10:12:57.817Z,12.20
2019-03-24T10:13:56.319Z,12.36
2019-03-24T10:14:56.057Z,12.35
2019-03-24T10:15:56.939Z,12.33
2019-03-24T10:16:58.321Z,12.48
2019-03-24T10:17:56.323Z,12.45
2019-03-24T10:18:56.441Z,12.70
2019-03-24T10:19:56.010Z,12.65
2019-03-24T10:20:56.127Z,12.30
2019-03-24T10:21:59.841Z,12.02
2019-03-24T10:22:57.079Z,11.96
2019-03-24T10:23:58.321Z,11.97
2019-03-24T10:25:00.060Z,12.12
2019-03-24T10:26:03.922Z,11.83
2019-03-24T10:27:00.854Z,11.91
2019-03-24T10:28:00.319Z,12.02
2019-03-24T10:28:57.480Z,12.15
2019-03-24T10:30:02.946Z,12.28
2019-03-24T10:30:58.515Z,12.33
2019-03-24T10:31:58.324Z,12.37
2019-03-24T10:32:57.097Z,12.40
2019-03-24T10:34:00.038Z,12.57
2019-03-24T10:34:57.158Z,12.72
2019-03-24T10:36:21.846Z,12.84
2019-03-24T10:36:58.627Z,12.94
2019-03-24T10:37:57.471Z,12.94
2019-03-24T10:38:58.133Z,12.99
2019-03-24T10:39:57.829Z,13.01
2019-03-24T10:40:55.898Z,13.08
2019-03-24T10:41:58.163Z,12.99
2019-03-24T10:42:56.575Z,12.91
2019-03-24T10:43:58.832Z,12.84
2019-03-24T10:44:55.906Z,12.37
2019-03-24T10:45:57.331Z,12.08
2019-03-24T10:46:58.990Z,12.21
2019-03-24T10:47:58.074Z,12.29
2019-03-24T10:48:57.066Z,12.39
2019-03-24T10:49:58.854Z,12.65
2019-03-24T10:50:57.460Z,12.75
2019-03-24T10:51:57.330Z,12.91
2019-03-24T10:52:59.999Z,12.54
2019-03-24T10:53:59.828Z,12.75
2019-03-24T10:55:02.337Z,12.87
2019-03-24T10:55:57.837Z,12.91
2019-03-24T10:57:00.017Z,13.01
2019-03-24T10:57:57.910Z,12.98
2019-03-24T10:58:59.331Z,12.90
2019-03-24T10:59:56.833Z,12.88
2019-03-24T11:00:57.840Z,12.93
2019-03-24T11:01:57.958Z,13.20
2019-03-24T11:02:56.834Z,13.30
2019-03-24T11:03:55.901Z,13.37
2019-03-24T11:04:56.340Z,13.46
2019-03-24T11:05:57.538Z,13.33
2019-03-24T11:06:57.917Z,13.30
2019-03-24T11:07:58.337Z,13.23
2019-03-24T11:08:57.440Z,12.65
2019-03-24T11:09:57.488Z,12.61
2019-03-24T11:10:57.851Z,12.63
2019-03-24T11:11:57.842Z,12.90
2019-03-24T11:12:57.334Z,12.84
2019-03-24T11:13:56.951Z,12.93
2019-03-24T11:14:55.727Z,13.11
2019-03-24T11:15:55.583Z,13.16
2019-03-24T11:16:56.334Z,13.16
2019-03-24T11:17:56.957Z,13.16
2019-03-24T11:18:57.840Z,13.31
2019-03-24T11:19:58.847Z,13.39
2019-03-24T11:20:56.836Z,13.45
2019-03-24T11:21:56.837Z,13.85
2019-03-24T11:22:59.326Z,14.11
2019-03-24T11:39:28.494Z,13.50
2019-03-24T11:40:29.596Z,13.47
2019-03-24T11:42:55.333Z,13.19
2019-03-24T11:43:43.301Z,13.05
2019-03-24T11:44:40.493Z,13.16
2019-03-24T11:46:03.743Z,13.13
2019-03-24T11:46:39.831Z,13.19
2019-03-24T11:47:39.724Z,13.46
2019-03-24T11:48:48.858Z,13.31
2019-03-24T11:49:46.075Z,13.36
2019-03-24T11:50:40.633Z,13.45
2019-03-24T11:51:39.917Z,13.24
2019-03-24T11:52:39.619Z,13.20
2019-03-24T11:53:39.618Z,13.39
2019-03-24T11:54:39.618Z,13.50
2019-03-24T11:55:39.626Z,13.57
2019-03-24T11:56:39.627Z,13.61
2019-03-24T11:57:39.609Z,13.54
2019-03-24T11:58:39.685Z,13.79
2019-03-24T11:59:39.575Z,13.64
2019-03-24T12:00:39.545Z,13.70
2019-03-24T12:01:39.620Z,13.80
2019-03-24T12:02:39.560Z,13.97
2019-03-24T12:03:39.510Z,14.26
2019-03-24T12:04:39.564Z,14.41
2019-03-24T12:05:46.541Z,14.52
2019-03-24T12:06:42.367Z,14.71
2019-03-24T12:07:41.929Z,14.77
2019-03-24T12:08:42.871Z,14.36
2019-03-24T12:09:44.286Z,14.12
2019-03-24T12:10:40.326Z,14.25
2019-03-24T12:11:39.440Z,14.22
2019-03-24T12:12:40.321Z,14.20
2019-03-24T12:13:39.437Z,13.83
2019-03-24T12:14:39.395Z,13.82
2019-03-24T12:15:39.385Z,14.03
2019-03-24T12:16:39.429Z,14.30
2019-03-24T12:17:39.369Z,14.25
2019-03-24T12:18:39.437Z,14.41
2019-03-24T12:19:39.372Z,14.48
2019-03-24T12:20:39.328Z,14.74
2019-03-24T12:21:39.358Z,14.55
2019-03-24T12:22:39.321Z,14.61
2019-03-24T12:23:39.442Z,14.66
2019-03-24T12:24:39.340Z,14.53
2019-03-24T12:25:39.293Z,14.56
2019-03-24T12:26:39.258Z,14.63
2019-03-24T12:27:39.255Z,14.70
2019-03-24T12:28:39.312Z,14.93
2019-03-24T12:29:39.248Z,14.97
2019-03-24T12:30:39.218Z,15.23
2019-03-24T12:31:39.237Z,15.26
2019-03-24T12:32:39.206Z,15.12
2019-03-24T12:33:39.206Z,15.14
2019-03-24T12:34:39.230Z,15.00
2019-03-24T12:35:39.177Z,14.99
2019-03-24T12:36:39.170Z,14.78
2019-03-24T12:37:39.151Z,14.71
2019-03-24T12:38:39.142Z,14.68
2019-03-24T12:39:39.163Z,14.58
2019-03-24T12:40:39.131Z,14.53
2019-03-24T12:41:39.145Z,14.68
2019-03-24T12:42:39.099Z,14.33
2019-03-24T12:43:39.084Z,14.55
2019-03-24T12:44:39.084Z,14.82
2019-03-24T12:45:39.104Z,15.48
2019-03-24T12:46:39.052Z,15.73
2019-03-24T12:47:39.059Z,16.05
2019-03-24T12:48:39.041Z,16.10
2019-03-24T12:49:39.105Z,15.96
2019-03-24T12:50:39.035Z,16.47
2019-03-24T12:51:39.039Z,17.22
2019-03-24T12:52:41.834Z,18.05
2019-03-24T12:55:24.742Z,18.91
2019-03-24T12:56:24.739Z,19.07
2019-03-24T12:57:26.317Z,19.26
2019-03-24T12:58:35.319Z,20.11
2019-03-24T12:59:24.657Z,20.67
2019-03-24T13:00:24.681Z,20.59
2019-03-24T13:02:43.377Z,20.37
2019-03-24T13:03:43.306Z,20.07
2019-03-24T13:04:43.307Z,19.27
2019-03-24T13:05:43.305Z,18.23
2019-03-24T13:06:43.972Z,17.46
2019-03-24T13:07:45.560Z,17.05
2019-03-24T13:08:43.279Z,16.89
2019-03-24T13:09:45.615Z,16.72
2019-03-24T13:10:43.975Z,16.72
2019-03-24T13:15:34.924Z,15.98
2019-03-24T13:16:34.872Z,15.88
2019-03-24T13:17:35.119Z,16.06
2019-03-24T13:18:34.885Z,16.03
2019-03-24T13:19:36.117Z,15.87
2019-03-24T13:20:38.345Z,15.83
2019-03-24T13:21:34.867Z,15.60
2019-03-24T13:22:35.720Z,15.52
2019-03-24T13:23:34.804Z,15.48
2019-03-24T13:24:34.857Z,15.12
2019-03-24T13:25:44.260Z,15.02
2019-03-24T13:26:34.763Z,15.05
2019-03-24T13:27:34.774Z,15.00
2019-03-24T13:28:34.816Z,14.97
2019-03-24T13:29:34.713Z,14.99
2019-03-24T13:30:34.704Z,14.94
2019-03-24T13:31:34.707Z,14.81
2019-03-24T13:32:34.678Z,14.90
2019-03-24T13:33:34.700Z,14.90